sensor_id;sensor_type;location;lat;lon;timestamp;temperature;humidity
52189;DHT22;38162;45.926;13.608;2022-07-21T00:00:57;27.60;44.90
52189;DHT22;38162;45.926;13.608;2022-07-21T00:03:23;27.60;44.40
52189;DHT22;38162;45.926;13.608;2022-07-21T00:05:48;27.60;44.60
52189;DHT22;38162;45.926;13.608;2022-07-21T00:08:14;27.50;45.30
52189;DHT22;38162;45.926;13.608;2022-07-21T00:10:40;27.50;45.40
52189;DHT22;38162;45.926;13.608;2022-07-21T00:13:06;27.40;45.10
52189;DHT22;38162;45.926;13.608;2022-07-21T00:15:32;27.40;44.90
52189;DHT22;38162;45.926;13.608;2022-07-21T00:17:58;27.30;44.70
52189;DHT22;38162;45.926;13.608;2022-07-21T00:20:25;27.30;44.90
52189;DHT22;38162;45.926;13.608;2022-07-21T00:22:53;27.20;45.60
52189;DHT22;38162;45.926;13.608;2022-07-21T00:25:20;27.20;45.80
52189;DHT22;38162;45.926;13.608;2022-07-21T00:27:46;27.20;45.70
52189;DHT22;38162;45.926;13.608;2022-07-21T00:30:12;27.20;46.50
52189;DHT22;38162;45.926;13.608;2022-07-21T00:32:38;27.20;47.10
52189;DHT22;38162;45.926;13.608;2022-07-21T00:35:05;27.10;47.00
52189;DHT22;38162;45.926;13.608;2022-07-21T00:37:31;27.10;47.00
52189;DHT22;38162;45.926;13.608;2022-07-21T00:39:57;27.00;47.20
52189;DHT22;38162;45.926;13.608;2022-07-21T00:42:26;27.00;47.00
52189;DHT22;38162;45.926;13.608;2022-07-21T00:44:52;26.90;47.30
52189;DHT22;38162;45.926;13.608;2022-07-21T00:47:25;26.90;47.60
52189;DHT22;38162;45.926;13.608;2022-07-21T00:49:51;26.90;47.20
52189;DHT22;38162;45.926;13.608;2022-07-21T00:52:18;26.90;46.40
52189;DHT22;38162;45.926;13.608;2022-07-21T00:54:44;26.90;46.30
52189;DHT22;38162;45.926;13.608;2022-07-21T00:57:10;26.80;46.20
52189;DHT22;38162;45.926;13.608;2022-07-21T00:59:37;26.80;46.20
52189;DHT22;38162;45.926;13.608;2022-07-21T01:02:02;26.80;46.30
52189;DHT22;38162;45.926;13.608;2022-07-21T01:04:28;26.70;46.30
52189;DHT22;38162;45.926;13.608;2022-07-21T01:06:54;26.80;46.30
52189;DHT22;38162;45.926;13.608;2022-07-21T01:09:21;26.70;46.40
52189;DHT22;38162;45.926;13.608;2022-07-21T01:11:47;26.60;47.20
52189;DHT22;38162;45.926;13.608;2022-07-21T01:14:13;26.60;47.60
52189;DHT22;38162;45.926;13.608;2022-07-21T01:16:41;26.50;47.50
52189;DHT22;38162;45.926;13.608;2022-07-21T01:19:09;26.50;47.10
52189;DHT22;38162;45.926;13.608;2022-07-21T01:21:44;26.50;47.10
52189;DHT22;38162;45.926;13.608;2022-07-21T01:24:10;26.50;47.20
52189;DHT22;38162;45.926;13.608;2022-07-21T01:26:41;26.50;47.10
52189;DHT22;38162;45.926;13.608;2022-07-21T01:29:07;26.40;47.20
52189;DHT22;38162;45.926;13.608;2022-07-21T01:31:34;26.30;47.50
52189;DHT22;38162;45.926;13.608;2022-07-21T01:34:00;26.30;48.30
52189;DHT22;38162;45.926;13.608;2022-07-21T01:36:26;26.20;47.80
52189;DHT22;38162;45.926;13.608;2022-07-21T01:38:51;26.20;48.20
52189;DHT22;38162;45.926;13.608;2022-07-21T01:41:35;26.20;47.10
52189;DHT22;38162;45.926;13.608;2022-07-21T01:44:04;26.20;47.30
52189;DHT22;38162;45.926;13.608;2022-07-21T01:46:32;26.10;47.40
52189;DHT22;38162;45.926;13.608;2022-07-21T01:48:58;26.10;47.20
52189;DHT22;38162;45.926;13.608;2022-07-21T01:51:24;26.10;47.10
52189;DHT22;38162;45.926;13.608;2022-07-21T01:53:51;26.10;47.40
52189;DHT22;38162;45.926;13.608;2022-07-21T01:56:22;26.00;47.60
52189;DHT22;38162;45.926;13.608;2022-07-21T01:58:49;26.00;47.70
52189;DHT22;38162;45.926;13.608;2022-07-21T02:01:19;25.90;48.30
52189;DHT22;38162;45.926;13.608;2022-07-21T02:03:45;26.00;47.80
52189;DHT22;38162;45.926;13.608;2022-07-21T02:06:12;25.90;47.80
52189;DHT22;38162;45.926;13.608;2022-07-21T02:08:38;25.90;48.90
52189;DHT22;38162;45.926;13.608;2022-07-21T02:11:05;25.80;47.80
52189;DHT22;38162;45.926;13.608;2022-07-21T02:13:31;25.90;47.60
52189;DHT22;38162;45.926;13.608;2022-07-21T02:15:56;25.90;47.50
52189;DHT22;38162;45.926;13.608;2022-07-21T02:18:22;25.90;47.40
52189;DHT22;38162;45.926;13.608;2022-07-21T02:20:48;26.00;47.20
52189;DHT22;38162;45.926;13.608;2022-07-21T02:23:18;26.00;47.20
52189;DHT22;38162;45.926;13.608;2022-07-21T02:25:44;26.00;47.20
52189;DHT22;38162;45.926;13.608;2022-07-21T02:28:11;25.90;47.30
52189;DHT22;38162;45.926;13.608;2022-07-21T02:30:37;25.90;47.30
52189;DHT22;38162;45.926;13.608;2022-07-21T02:33:03;25.90;47.50
52189;DHT22;38162;45.926;13.608;2022-07-21T02:35:29;25.80;47.50
52189;DHT22;38162;45.926;13.608;2022-07-21T02:37:55;25.80;47.50
52189;DHT22;38162;45.926;13.608;2022-07-21T02:40:21;25.80;47.50
52189;DHT22;38162;45.926;13.608;2022-07-21T02:42:47;25.80;47.70
52189;DHT22;38162;45.926;13.608;2022-07-21T02:45:13;25.70;47.70
52189;DHT22;38162;45.926;13.608;2022-07-21T02:48:08;25.80;47.80
52189;DHT22;38162;45.926;13.608;2022-07-21T02:50:36;25.80;48.20
52189;DHT22;38162;45.926;13.608;2022-07-21T02:53:05;25.70;47.40
52189;DHT22;38162;45.926;13.608;2022-07-21T02:55:31;25.70;47.50
52189;DHT22;38162;45.926;13.608;2022-07-21T02:58:16;25.70;47.60
52189;DHT22;38162;45.926;13.608;2022-07-21T03:00:44;25.70;47.20
52189;DHT22;38162;45.926;13.608;2022-07-21T03:03:10;25.70;47.20
52189;DHT22;38162;45.926;13.608;2022-07-21T03:05:37;25.50;47.20
52189;DHT22;38162;45.926;13.608;2022-07-21T03:08:04;25.50;47.60
52189;DHT22;38162;45.926;13.608;2022-07-21T03:10:30;25.50;48.40
52189;DHT22;38162;45.926;13.608;2022-07-21T03:12:56;25.40;48.70
52189;DHT22;38162;45.926;13.608;2022-07-21T03:15:22;25.40;48.80
52189;DHT22;38162;45.926;13.608;2022-07-21T03:17:48;25.40;48.50
52189;DHT22;38162;45.926;13.608;2022-07-21T03:20:14;25.40;48.00
52189;DHT22;38162;45.926;13.608;2022-07-21T03:22:40;25.40;47.90
52189;DHT22;38162;45.926;13.608;2022-07-21T03:25:06;25.40;48.00
52189;DHT22;38162;45.926;13.608;2022-07-21T03:27:32;25.30;48.00
52189;DHT22;38162;45.926;13.608;2022-07-21T03:30:03;25.30;48.20
52189;DHT22;38162;45.926;13.608;2022-07-21T03:32:29;25.30;48.30
52189;DHT22;38162;45.926;13.608;2022-07-21T03:34:55;25.20;48.50
52189;DHT22;38162;45.926;13.608;2022-07-21T03:37:20;25.20;48.30
52189;DHT22;38162;45.926;13.608;2022-07-21T03:39:46;25.20;48.30
52189;DHT22;38162;45.926;13.608;2022-07-21T03:42:12;25.20;49.10
52189;DHT22;38162;45.926;13.608;2022-07-21T03:44:37;25.10;49.80
52189;DHT22;38162;45.926;13.608;2022-07-21T03:47:03;25.10;49.50
52189;DHT22;38162;45.926;13.608;2022-07-21T03:49:29;25.20;48.70
52189;DHT22;38162;45.926;13.608;2022-07-21T03:51:54;25.20;48.90
52189;DHT22;38162;45.926;13.608;2022-07-21T03:54:20;25.20;49.30
52189;DHT22;38162;45.926;13.608;2022-07-21T03:56:46;25.10;50.00
52189;DHT22;38162;45.926;13.608;2022-07-21T03:59:11;25.10;50.50
52189;DHT22;38162;45.926;13.608;2022-07-21T04:01:37;25.10;50.40
52189;DHT22;38162;45.926;13.608;2022-07-21T04:04:03;25.10;50.20
52189;DHT22;38162;45.926;13.608;2022-07-21T04:06:29;25.10;49.30
52189;DHT22;38162;45.926;13.608;2022-07-21T04:08:54;25.10;49.20
52189;DHT22;38162;45.926;13.608;2022-07-21T04:11:20;25.20;49.20
52189;DHT22;38162;45.926;13.608;2022-07-21T04:13:46;25.10;49.70
52189;DHT22;38162;45.926;13.608;2022-07-21T04:16:11;25.10;50.80
52189;DHT22;38162;45.926;13.608;2022-07-21T04:18:37;25.00;50.80
52189;DHT22;38162;45.926;13.608;2022-07-21T04:21:03;24.90;51.00
52189;DHT22;38162;45.926;13.608;2022-07-21T04:23:29;24.90;50.50
52189;DHT22;38162;45.926;13.608;2022-07-21T04:25:55;24.90;50.30
52189;DHT22;38162;45.926;13.608;2022-07-21T04:28:20;24.90;50.10
52189;DHT22;38162;45.926;13.608;2022-07-21T04:30:46;24.90;50.30
52189;DHT22;38162;45.926;13.608;2022-07-21T04:33:12;24.90;50.10
52189;DHT22;38162;45.926;13.608;2022-07-21T04:35:37;25.00;49.90
52189;DHT22;38162;45.926;13.608;2022-07-21T04:38:03;25.00;49.80
52189;DHT22;38162;45.926;13.608;2022-07-21T04:40:28;25.00;49.70
52189;DHT22;38162;45.926;13.608;2022-07-21T04:42:54;25.10;50.60
52189;DHT22;38162;45.926;13.608;2022-07-21T04:45:20;25.10;51.90
52189;DHT22;38162;45.926;13.608;2022-07-21T04:47:49;25.00;53.10
52189;DHT22;38162;45.926;13.608;2022-07-21T04:50:17;25.00;52.80
52189;DHT22;38162;45.926;13.608;2022-07-21T04:52:43;25.00;51.90
52189;DHT22;38162;45.926;13.608;2022-07-21T04:55:10;25.00;53.30
52189;DHT22;38162;45.926;13.608;2022-07-21T04:57:41;25.00;51.20
52189;DHT22;38162;45.926;13.608;2022-07-21T05:00:10;25.10;51.10
52189;DHT22;38162;45.926;13.608;2022-07-21T05:02:36;25.20;50.90
52189;DHT22;38162;45.926;13.608;2022-07-21T05:05:02;25.20;51.10
52189;DHT22;38162;45.926;13.608;2022-07-21T05:07:28;25.20;51.40
52189;DHT22;38162;45.926;13.608;2022-07-21T05:09:54;25.20;50.70
52189;DHT22;38162;45.926;13.608;2022-07-21T05:12:19;25.10;50.70
52189;DHT22;38162;45.926;13.608;2022-07-21T05:14:45;25.10;50.80
52189;DHT22;38162;45.926;13.608;2022-07-21T05:17:11;25.10;51.30
52189;DHT22;38162;45.926;13.608;2022-07-21T05:19:36;25.10;51.30
52189;DHT22;38162;45.926;13.608;2022-07-21T05:22:02;25.20;51.10
52189;DHT22;38162;45.926;13.608;2022-07-21T05:24:28;25.20;51.20
52189;DHT22;38162;45.926;13.608;2022-07-21T05:26:53;25.20;50.80
52189;DHT22;38162;45.926;13.608;2022-07-21T05:29:19;25.30;50.60
52189;DHT22;38162;45.926;13.608;2022-07-21T05:31:45;25.30;50.00
52189;DHT22;38162;45.926;13.608;2022-07-21T05:34:10;25.30;50.00
52189;DHT22;38162;45.926;13.608;2022-07-21T05:36:36;25.40;50.00
52189;DHT22;38162;45.926;13.608;2022-07-21T05:39:03;25.40;49.90
52189;DHT22;38162;45.926;13.608;2022-07-21T05:41:28;25.50;49.30
52189;DHT22;38162;45.926;13.608;2022-07-21T05:43:54;25.50;49.50
52189;DHT22;38162;45.926;13.608;2022-07-21T05:46:20;25.60;49.30
52189;DHT22;38162;45.926;13.608;2022-07-21T05:48:45;25.70;49.40
52189;DHT22;38162;45.926;13.608;2022-07-21T05:51:11;25.70;49.40
52189;DHT22;38162;45.926;13.608;2022-07-21T05:53:37;25.70;49.70
52189;DHT22;38162;45.926;13.608;2022-07-21T05:56:03;25.70;49.80
52189;DHT22;38162;45.926;13.608;2022-07-21T05:58:28;25.70;49.80
52189;DHT22;38162;45.926;13.608;2022-07-21T06:00:55;25.70;49.90
52189;DHT22;38162;45.926;13.608;2022-07-21T06:03:42;25.80;50.00
52189;DHT22;38162;45.926;13.608;2022-07-21T06:06:08;25.90;50.20
52189;DHT22;38162;45.926;13.608;2022-07-21T06:08:37;25.90;50.10
52189;DHT22;38162;45.926;13.608;2022-07-21T06:11:02;26.00;50.40
52189;DHT22;38162;45.926;13.608;2022-07-21T06:13:28;26.00;50.40
52189;DHT22;38162;45.926;13.608;2022-07-21T06:15:54;26.00;49.70
52189;DHT22;38162;45.926;13.608;2022-07-21T06:18:20;26.10;49.50
52189;DHT22;38162;45.926;13.608;2022-07-21T06:20:45;26.20;49.60
52189;DHT22;38162;45.926;13.608;2022-07-21T06:23:11;26.20;49.60
52189;DHT22;38162;45.926;13.608;2022-07-21T06:25:37;26.20;49.20
52189;DHT22;38162;45.926;13.608;2022-07-21T06:28:03;26.30;49.10
52189;DHT22;38162;45.926;13.608;2022-07-21T06:30:28;26.40;49.00
52189;DHT22;38162;45.926;13.608;2022-07-21T06:32:54;26.40;48.70
52189;DHT22;38162;45.926;13.608;2022-07-21T06:35:20;26.50;48.80
52189;DHT22;38162;45.926;13.608;2022-07-21T06:37:46;26.60;49.30
52189;DHT22;38162;45.926;13.608;2022-07-21T06:40:13;26.60;49.10
52189;DHT22;38162;45.926;13.608;2022-07-21T06:42:39;26.70;48.60
52189;DHT22;38162;45.926;13.608;2022-07-21T06:45:06;26.70;48.50
52189;DHT22;38162;45.926;13.608;2022-07-21T06:47:32;26.80;49.10
52189;DHT22;38162;45.926;13.608;2022-07-21T06:49:57;26.80;48.30
52189;DHT22;38162;45.926;13.608;2022-07-21T06:52:29;26.90;48.30
52189;DHT22;38162;45.926;13.608;2022-07-21T06:54:55;27.00;48.30
52189;DHT22;38162;45.926;13.608;2022-07-21T06:57:21;27.00;48.30
52189;DHT22;38162;45.926;13.608;2022-07-21T06:59:47;27.10;48.40
52189;DHT22;38162;45.926;13.608;2022-07-21T07:02:13;27.10;48.10
52189;DHT22;38162;45.926;13.608;2022-07-21T07:04:38;27.20;48.10
52189;DHT22;38162;45.926;13.608;2022-07-21T07:07:04;27.20;48.00
52189;DHT22;38162;45.926;13.608;2022-07-21T07:09:30;27.30;47.80
52189;DHT22;38162;45.926;13.608;2022-07-21T07:11:56;27.40;47.80
52189;DHT22;38162;45.926;13.608;2022-07-21T07:14:32;27.40;47.60
52189;DHT22;38162;45.926;13.608;2022-07-21T07:16:59;27.50;48.00
52189;DHT22;38162;45.926;13.608;2022-07-21T07:19:25;27.60;47.50
52189;DHT22;38162;45.926;13.608;2022-07-21T07:21:51;27.70;46.90
52189;DHT22;38162;45.926;13.608;2022-07-21T07:24:17;27.80;46.90
52189;DHT22;38162;45.926;13.608;2022-07-21T07:26:43;27.80;46.60
52189;DHT22;38162;45.926;13.608;2022-07-21T07:29:08;27.80;46.80
52189;DHT22;38162;45.926;13.608;2022-07-21T07:31:35;27.90;46.40
52189;DHT22;38162;45.926;13.608;2022-07-21T07:34:01;28.00;46.20
52189;DHT22;38162;45.926;13.608;2022-07-21T07:36:28;28.10;46.00
52189;DHT22;38162;45.926;13.608;2022-07-21T07:38:54;28.10;45.30
52189;DHT22;38162;45.926;13.608;2022-07-21T07:41:22;28.10;45.20
52189;DHT22;38162;45.926;13.608;2022-07-21T07:43:48;28.10;45.50
52189;DHT22;38162;45.926;13.608;2022-07-21T07:46:13;28.20;45.20
52189;DHT22;38162;45.926;13.608;2022-07-21T07:48:40;28.20;45.10
52189;DHT22;38162;45.926;13.608;2022-07-21T07:51:08;28.30;45.00
52189;DHT22;38162;45.926;13.608;2022-07-21T07:53:34;28.40;45.00
52189;DHT22;38162;45.926;13.608;2022-07-21T07:56:02;28.40;44.90
52189;DHT22;38162;45.926;13.608;2022-07-21T07:58:27;28.50;44.80
52189;DHT22;38162;45.926;13.608;2022-07-21T08:00:53;28.60;44.40
52189;DHT22;38162;45.926;13.608;2022-07-21T08:03:20;28.60;44.30
52189;DHT22;38162;45.926;13.608;2022-07-21T08:05:46;28.70;44.40
52189;DHT22;38162;45.926;13.608;2022-07-21T08:08:13;28.70;44.30
52189;DHT22;38162;45.926;13.608;2022-07-21T08:10:39;28.70;44.00
52189;DHT22;38162;45.926;13.608;2022-07-21T08:13:06;28.80;43.30
52189;DHT22;38162;45.926;13.608;2022-07-21T08:15:34;28.90;43.30
52189;DHT22;38162;45.926;13.608;2022-07-21T08:18:01;28.90;43.00
52189;DHT22;38162;45.926;13.608;2022-07-21T08:20:26;29.00;43.10
52189;DHT22;38162;45.926;13.608;2022-07-21T08:22:52;29.00;43.20
52189;DHT22;38162;45.926;13.608;2022-07-21T08:25:18;29.10;43.50
52189;DHT22;38162;45.926;13.608;2022-07-21T08:27:43;29.20;43.60
52189;DHT22;38162;45.926;13.608;2022-07-21T08:30:10;29.20;43.00
52189;DHT22;38162;45.926;13.608;2022-07-21T08:32:36;29.20;43.20
52189;DHT22;38162;45.926;13.608;2022-07-21T08:35:01;29.30;43.00
52189;DHT22;38162;45.926;13.608;2022-07-21T08:37:27;29.30;42.60
52189;DHT22;38162;45.926;13.608;2022-07-21T08:39:53;29.40;42.30
52189;DHT22;38162;45.926;13.608;2022-07-21T08:42:18;29.40;42.10
52189;DHT22;38162;45.926;13.608;2022-07-21T08:44:44;29.50;41.80
52189;DHT22;38162;45.926;13.608;2022-07-21T08:47:10;29.60;41.90
52189;DHT22;38162;45.926;13.608;2022-07-21T08:49:36;29.70;41.80
52189;DHT22;38162;45.926;13.608;2022-07-21T08:52:02;29.70;41.90
52189;DHT22;38162;45.926;13.608;2022-07-21T08:54:31;29.80;41.70
52189;DHT22;38162;45.926;13.608;2022-07-21T08:56:57;29.80;41.20
52189;DHT22;38162;45.926;13.608;2022-07-21T08:59:23;29.90;41.20
52189;DHT22;38162;45.926;13.608;2022-07-21T09:01:49;30.00;41.80
52189;DHT22;38162;45.926;13.608;2022-07-21T09:04:33;30.00;41.00
52189;DHT22;38162;45.926;13.608;2022-07-21T09:07:07;30.10;41.10
52189;DHT22;38162;45.926;13.608;2022-07-21T09:09:34;30.20;40.90
52189;DHT22;38162;45.926;13.608;2022-07-21T09:12:01;30.30;40.60
52189;DHT22;38162;45.926;13.608;2022-07-21T09:14:30;30.30;40.50
52189;DHT22;38162;45.926;13.608;2022-07-21T09:16:58;30.40;40.00
52189;DHT22;38162;45.926;13.608;2022-07-21T09:19:36;30.50;40.00
52189;DHT22;38162;45.926;13.608;2022-07-21T09:22:06;30.60;40.00
52189;DHT22;38162;45.926;13.608;2022-07-21T09:24:34;30.70;39.90
52189;DHT22;38162;45.926;13.608;2022-07-21T09:27:11;30.70;39.50
52189;DHT22;38162;45.926;13.608;2022-07-21T09:29:40;30.80;39.10
52189;DHT22;38162;45.926;13.608;2022-07-21T09:34:48;30.90;38.50
52189;DHT22;38162;45.926;13.608;2022-07-21T09:37:14;31.00;38.50
52189;DHT22;38162;45.926;13.608;2022-07-21T09:40:05;31.10;38.20
52189;DHT22;38162;45.926;13.608;2022-07-21T09:42:56;31.20;38.20
52189;DHT22;38162;45.926;13.608;2022-07-21T09:45:21;31.20;38.40
52189;DHT22;38162;45.926;13.608;2022-07-21T09:47:47;31.20;38.30
52189;DHT22;38162;45.926;13.608;2022-07-21T09:50:15;31.30;38.70
52189;DHT22;38162;45.926;13.608;2022-07-21T09:52:43;31.30;38.00
52189;DHT22;38162;45.926;13.608;2022-07-21T09:55:12;31.50;38.10
52189;DHT22;38162;45.926;13.608;2022-07-21T09:57:38;31.50;38.10
52189;DHT22;38162;45.926;13.608;2022-07-21T10:00:09;31.60;38.30
52189;DHT22;38162;45.926;13.608;2022-07-21T10:02:35;31.70;37.70
52189;DHT22;38162;45.926;13.608;2022-07-21T10:05:17;31.70;37.50
52189;DHT22;38162;45.926;13.608;2022-07-21T10:07:45;31.80;37.90
52189;DHT22;38162;45.926;13.608;2022-07-21T10:10:11;31.80;37.90
52189;DHT22;38162;45.926;13.608;2022-07-21T10:12:38;31.90;37.60
52189;DHT22;38162;45.926;13.608;2022-07-21T10:15:04;32.00;37.90
52189;DHT22;38162;45.926;13.608;2022-07-21T10:17:30;32.00;38.20
52189;DHT22;38162;45.926;13.608;2022-07-21T10:22:52;32.20;38.00
52189;DHT22;38162;45.926;13.608;2022-07-21T10:25:22;32.30;37.20
52189;DHT22;38162;45.926;13.608;2022-07-21T10:30:50;32.30;37.20
52189;DHT22;38162;45.926;13.608;2022-07-21T10:33:19;32.30;37.20
52189;DHT22;38162;45.926;13.608;2022-07-21T10:35:47;32.40;37.00
52189;DHT22;38162;45.926;13.608;2022-07-21T10:38:39;32.40;37.10
52189;DHT22;38162;45.926;13.608;2022-07-21T10:41:05;32.40;35.90
52189;DHT22;38162;45.926;13.608;2022-07-21T10:45:58;32.50;35.50
52189;DHT22;38162;45.926;13.608;2022-07-21T10:51:10;32.60;33.90
52189;DHT22;38162;45.926;13.608;2022-07-21T10:53:37;32.60;34.40
52189;DHT22;38162;45.926;13.608;2022-07-21T10:56:03;32.60;34.40
52189;DHT22;38162;45.926;13.608;2022-07-21T11:01:00;32.70;34.60
52189;DHT22;38162;45.926;13.608;2022-07-21T11:03:26;32.70;34.90
52189;DHT22;38162;45.926;13.608;2022-07-21T11:08:47;32.80;35.20
52189;DHT22;38162;45.926;13.608;2022-07-21T11:21:51;33.00;34.50
52189;DHT22;38162;45.926;13.608;2022-07-21T11:24:24;33.10;34.80
52189;DHT22;38162;45.926;13.608;2022-07-21T11:27:07;33.10;34.90
52189;DHT22;38162;45.926;13.608;2022-07-21T11:29:36;33.20;33.90
52189;DHT22;38162;45.926;13.608;2022-07-21T11:32:02;33.20;33.70
52189;DHT22;38162;45.926;13.608;2022-07-21T11:34:49;33.30;33.80
52189;DHT22;38162;45.926;13.608;2022-07-21T11:37:32;33.30;34.00
52189;DHT22;38162;45.926;13.608;2022-07-21T11:39:59;33.40;34.00
52189;DHT22;38162;45.926;13.608;2022-07-21T11:42:26;33.40;33.70
52189;DHT22;38162;45.926;13.608;2022-07-21T11:44:52;33.50;32.30
52189;DHT22;38162;45.926;13.608;2022-07-21T11:47:18;33.50;32.40
52189;DHT22;38162;45.926;13.608;2022-07-21T11:49:46;33.50;32.30
52189;DHT22;38162;45.926;13.608;2022-07-21T11:52:14;33.60;32.60
52189;DHT22;38162;45.926;13.608;2022-07-21T11:54:48;33.70;33.10
52189;DHT22;38162;45.926;13.608;2022-07-21T11:57:16;33.70;32.80
52189;DHT22;38162;45.926;13.608;2022-07-21T11:59:43;33.70;32.80
52189;DHT22;38162;45.926;13.608;2022-07-21T12:02:11;33.80;32.90
52189;DHT22;38162;45.926;13.608;2022-07-21T12:07:30;33.80;33.40
52189;DHT22;38162;45.926;13.608;2022-07-21T12:10:08;33.80;32.60
52189;DHT22;38162;45.926;13.608;2022-07-21T12:12:43;33.90;32.90
52189;DHT22;38162;45.926;13.608;2022-07-21T12:17:47;33.90;32.70
52189;DHT22;38162;45.926;13.608;2022-07-21T12:20:15;33.90;32.30
52189;DHT22;38162;45.926;13.608;2022-07-21T12:22:45;34.00;32.20
52189;DHT22;38162;45.926;13.608;2022-07-21T12:25:17;34.10;32.30
52189;DHT22;38162;45.926;13.608;2022-07-21T12:27:45;34.10;31.60
52189;DHT22;38162;45.926;13.608;2022-07-21T12:30:50;34.10;32.20
52189;DHT22;38162;45.926;13.608;2022-07-21T12:33:27;34.20;32.00
52189;DHT22;38162;45.926;13.608;2022-07-21T12:36:01;34.20;32.10
52189;DHT22;38162;45.926;13.608;2022-07-21T12:38:41;34.20;32.10
52189;DHT22;38162;45.926;13.608;2022-07-21T12:41:09;34.30;32.40
52189;DHT22;38162;45.926;13.608;2022-07-21T12:43:35;34.30;32.50
52189;DHT22;38162;45.926;13.608;2022-07-21T12:46:02;34.30;33.00
52189;DHT22;38162;45.926;13.608;2022-07-21T12:48:29;34.40;33.00
52189;DHT22;38162;45.926;13.608;2022-07-21T12:53:40;34.50;32.30
52189;DHT22;38162;45.926;13.608;2022-07-21T12:56:06;34.50;32.30
52189;DHT22;38162;45.926;13.608;2022-07-21T12:58:33;34.50;32.30
52189;DHT22;38162;45.926;13.608;2022-07-21T13:00:59;34.50;32.50
52189;DHT22;38162;45.926;13.608;2022-07-21T13:03:28;34.60;32.60
52189;DHT22;38162;45.926;13.608;2022-07-21T13:05:53;34.60;32.00
52189;DHT22;38162;45.926;13.608;2022-07-21T13:08:19;34.60;31.60
52189;DHT22;38162;45.926;13.608;2022-07-21T13:10:45;34.60;31.90
52189;DHT22;38162;45.926;13.608;2022-07-21T13:13:11;34.70;32.10
52189;DHT22;38162;45.926;13.608;2022-07-21T13:15:36;34.70;32.00
52189;DHT22;38162;45.926;13.608;2022-07-21T13:18:02;34.70;32.00
52189;DHT22;38162;45.926;13.608;2022-07-21T13:20:28;34.70;31.70
52189;DHT22;38162;45.926;13.608;2022-07-21T13:22:54;34.70;31.20
52189;DHT22;38162;45.926;13.608;2022-07-21T13:25:20;34.80;31.30
52189;DHT22;38162;45.926;13.608;2022-07-21T13:27:45;34.80;31.20
52189;DHT22;38162;45.926;13.608;2022-07-21T13:30:11;34.90;31.00
52189;DHT22;38162;45.926;13.608;2022-07-21T13:32:37;34.90;30.90
52189;DHT22;38162;45.926;13.608;2022-07-21T13:35:04;34.90;31.00
52189;DHT22;38162;45.926;13.608;2022-07-21T13:37:30;34.90;31.20
52189;DHT22;38162;45.926;13.608;2022-07-21T13:39:56;34.90;31.40
52189;DHT22;38162;45.926;13.608;2022-07-21T13:42:24;34.90;31.40
52189;DHT22;38162;45.926;13.608;2022-07-21T13:44:50;34.90;31.70
52189;DHT22;38162;45.926;13.608;2022-07-21T13:47:15;34.90;31.50
52189;DHT22;38162;45.926;13.608;2022-07-21T13:49:41;35.00;31.50
52189;DHT22;38162;45.926;13.608;2022-07-21T13:52:07;35.00;31.60
52189;DHT22;38162;45.926;13.608;2022-07-21T13:54:34;34.90;31.60
52189;DHT22;38162;45.926;13.608;2022-07-21T13:56:59;34.90;31.40
52189;DHT22;38162;45.926;13.608;2022-07-21T13:59:26;34.90;31.80
52189;DHT22;38162;45.926;13.608;2022-07-21T14:01:52;34.90;31.30
52189;DHT22;38162;45.926;13.608;2022-07-21T14:04:18;34.90;31.90
52189;DHT22;38162;45.926;13.608;2022-07-21T14:06:44;34.90;32.30
52189;DHT22;38162;45.926;13.608;2022-07-21T14:09:15;34.90;32.00
52189;DHT22;38162;45.926;13.608;2022-07-21T14:11:42;34.90;32.00
52189;DHT22;38162;45.926;13.608;2022-07-21T14:14:07;35.00;31.90
52189;DHT22;38162;45.926;13.608;2022-07-21T14:16:33;35.00;31.80
52189;DHT22;38162;45.926;13.608;2022-07-21T14:18:59;35.00;31.70
52189;DHT22;38162;45.926;13.608;2022-07-21T14:21:26;35.00;31.90
52189;DHT22;38162;45.926;13.608;2022-07-21T14:23:52;35.00;31.40
52189;DHT22;38162;45.926;13.608;2022-07-21T14:26:38;34.90;31.90
52189;DHT22;38162;45.926;13.608;2022-07-21T14:29:05;34.90;31.80
52189;DHT22;38162;45.926;13.608;2022-07-21T14:31:31;34.90;31.30
52189;DHT22;38162;45.926;13.608;2022-07-21T14:33:57;35.00;31.40
52189;DHT22;38162;45.926;13.608;2022-07-21T14:36:22;34.90;31.60
52189;DHT22;38162;45.926;13.608;2022-07-21T14:38:48;35.00;31.30
52189;DHT22;38162;45.926;13.608;2022-07-21T14:41:14;35.00;31.50
52189;DHT22;38162;45.926;13.608;2022-07-21T14:43:40;35.00;31.80
52189;DHT22;38162;45.926;13.608;2022-07-21T14:46:05;35.00;31.30
52189;DHT22;38162;45.926;13.608;2022-07-21T14:48:32;35.00;31.60
52189;DHT22;38162;45.926;13.608;2022-07-21T14:50:57;35.00;31.60
52189;DHT22;38162;45.926;13.608;2022-07-21T14:53:23;35.00;31.60
52189;DHT22;38162;45.926;13.608;2022-07-21T14:55:49;34.90;31.60
52189;DHT22;38162;45.926;13.608;2022-07-21T14:58:15;35.00;31.70
52189;DHT22;38162;45.926;13.608;2022-07-21T15:00:40;35.00;31.80
52189;DHT22;38162;45.926;13.608;2022-07-21T15:03:07;35.00;32.50
52189;DHT22;38162;45.926;13.608;2022-07-21T15:05:33;35.00;31.80
52189;DHT22;38162;45.926;13.608;2022-07-21T15:07:58;35.00;31.70
52189;DHT22;38162;45.926;13.608;2022-07-21T15:10:24;35.00;31.80
52189;DHT22;38162;45.926;13.608;2022-07-21T15:12:50;35.00;32.20
52189;DHT22;38162;45.926;13.608;2022-07-21T15:15:16;35.00;32.40
52189;DHT22;38162;45.926;13.608;2022-07-21T15:17:42;34.90;32.60
52189;DHT22;38162;45.926;13.608;2022-07-21T15:20:08;34.90;32.40
52189;DHT22;38162;45.926;13.608;2022-07-21T15:22:34;34.90;32.60
52189;DHT22;38162;45.926;13.608;2022-07-21T15:25:01;34.90;32.90
52189;DHT22;38162;45.926;13.608;2022-07-21T15:27:27;34.90;32.90
52189;DHT22;38162;45.926;13.608;2022-07-21T15:29:53;34.90;33.10
52189;DHT22;38162;45.926;13.608;2022-07-21T15:32:19;34.90;33.10
52189;DHT22;38162;45.926;13.608;2022-07-21T15:34:45;34.90;34.40
52189;DHT22;38162;45.926;13.608;2022-07-21T15:37:11;34.90;36.80
52189;DHT22;38162;45.926;13.608;2022-07-21T15:39:38;34.90;39.00
52189;DHT22;38162;45.926;13.608;2022-07-21T15:42:07;34.80;39.80
52189;DHT22;38162;45.926;13.608;2022-07-21T15:44:33;34.70;40.20
52189;DHT22;38162;45.926;13.608;2022-07-21T15:46:59;34.70;41.80
52189;DHT22;38162;45.926;13.608;2022-07-21T15:49:25;34.60;42.30
52189;DHT22;38162;45.926;13.608;2022-07-21T15:51:50;34.50;42.50
52189;DHT22;38162;45.926;13.608;2022-07-21T15:54:16;34.40;42.80